sensor_id;sensor_type;location;lat;lon;timestamp;P1;durP1;ratioP1;P2;durP2;ratioP2
3867;SDS011;1949;48.152;11.528;2023-02-26T00:00:05;4.70;;;1.10;;
3867;SDS011;1949;48.152;11.528;2023-02-26T00:02:42;1.30;;;1.03;;
3867;SDS011;1949;48.152;11.528;2023-02-26T00:05:14;1.50;;;1.30;;
3867;SDS011;1949;48.152;11.528;2023-02-26T00:07:40;1.07;;;1.00;;
3867;SDS011;1949;48.152;11.528;2023-02-26T00:10:08;5.53;;;1.40;;
3867;SDS011;1949;48.152;11.528;2023-02-26T00:12:37;2.73;;;1.20;;
3867;SDS011;1949;48.152;11.528;2023-02-26T00:15:03;1.53;;;1.30;;
3867;SDS011;1949;48.152;11.528;2023-02-26T00:20:45;1.30;;;1.13;;
3867;SDS011;1949;48.152;11.528;2023-02-26T00:23:11;1.67;;;1.30;;
3867;SDS011;1949;48.152;11.528;2023-02-26T00:25:39;2.23;;;1.20;;
3867;SDS011;1949;48.152;11.528;2023-02-26T00:28:05;1.10;;;1.00;;
3867;SDS011;1949;48.152;11.528;2023-02-26T00:30:31;1.13;;;1.03;;
3867;SDS011;1949;48.152;11.528;2023-02-26T00:32:57;1.93;;;1.20;;
3867;SDS011;1949;48.152;11.528;2023-02-26T00:35:23;1.27;;;1.17;;
3867;SDS011;1949;48.152;11.528;2023-02-26T00:38:03;1.43;;;1.33;;
3867;SDS011;1949;48.152;11.528;2023-02-26T00:40:36;2.63;;;1.20;;
3867;SDS011;1949;48.152;11.528;2023-02-26T00:43:19;1.90;;;1.20;;
3867;SDS011;1949;48.152;11.528;2023-02-26T00:51:35;2.80;;;1.50;;
3867;SDS011;1949;48.152;11.528;2023-02-26T00:54:12;3.70;;;1.70;;
3867;SDS011;1949;48.152;11.528;2023-02-26T00:56:44;2.73;;;1.67;;
3867;SDS011;1949;48.152;11.528;2023-02-26T01:01:43;1.30;;;1.13;;
3867;SDS011;1949;48.152;11.528;2023-02-26T01:04:09;1.77;;;1.17;;
3867;SDS011;1949;48.152;11.528;2023-02-26T01:06:49;1.53;;;0.90;;
3867;SDS011;1949;48.152;11.528;2023-02-26T01:09:30;1.27;;;1.00;;
3867;SDS011;1949;48.152;11.528;2023-02-26T01:12:03;1.03;;;0.90;;
3867;SDS011;1949;48.152;11.528;2023-02-26T01:14:35;2.00;;;1.30;;
3867;SDS011;1949;48.152;11.528;2023-02-26T01:17:14;1.53;;;1.30;;
3867;SDS011;1949;48.152;11.528;2023-02-26T01:19:49;4.60;;;1.27;;
3867;SDS011;1949;48.152;11.528;2023-02-26T01:28:00;1.97;;;1.00;;
3867;SDS011;1949;48.152;11.528;2023-02-26T01:30:27;1.57;;;0.90;;
3867;SDS011;1949;48.152;11.528;2023-02-26T01:47:13;1.63;;;1.23;;
3867;SDS011;1949;48.152;11.528;2023-02-26T01:51:51;1.80;;;1.00;;
3867;SDS011;1949;48.152;11.528;2023-02-26T01:57:12;1.43;;;1.00;;
3867;SDS011;1949;48.152;11.528;2023-02-26T01:59:43;1.90;;;1.00;;
3867;SDS011;1949;48.152;11.528;2023-02-26T02:02:11;1.73;;;1.30;;
3867;SDS011;1949;48.152;11.528;2023-02-26T02:04:41;1.53;;;1.20;;
3867;SDS011;1949;48.152;11.528;2023-02-26T02:07:08;1.20;;;1.10;;
3867;SDS011;1949;48.152;11.528;2023-02-26T02:09:35;2.03;;;1.53;;
3867;SDS011;1949;48.152;11.528;2023-02-26T02:12:18;1.30;;;1.10;;
3867;SDS011;1949;48.152;11.528;2023-02-26T02:23:43;2.43;;;1.10;;
3867;SDS011;1949;48.152;11.528;2023-02-26T02:31:57;0.90;;;0.80;;
3867;SDS011;1949;48.152;11.528;2023-02-26T02:37:31;1.57;;;1.03;;
3867;SDS011;1949;48.152;11.528;2023-02-26T02:40:10;1.03;;;1.03;;
3867;SDS011;1949;48.152;11.528;2023-02-26T02:42:48;1.27;;;1.13;;
3867;SDS011;1949;48.152;11.528;2023-02-26T02:45:31;1.50;;;1.00;;
3867;SDS011;1949;48.152;11.528;2023-02-26T02:48:03;3.30;;;1.50;;
3867;SDS011;1949;48.152;11.528;2023-02-26T02:50:39;1.10;;;1.00;;
3867;SDS011;1949;48.152;11.528;2023-02-26T02:53:19;1.57;;;1.00;;
3867;SDS011;1949;48.152;11.528;2023-02-26T02:58:42;1.00;;;0.90;;
3867;SDS011;1949;48.152;11.528;2023-02-26T03:01:17;0.93;;;0.77;;
3867;SDS011;1949;48.152;11.528;2023-02-26T03:03:57;5.80;;;0.90;;
3867;SDS011;1949;48.152;11.528;2023-02-26T03:06:30;1.50;;;1.40;;
3867;SDS011;1949;48.152;11.528;2023-02-26T03:08:56;1.40;;;1.07;;
3867;SDS011;1949;48.152;11.528;2023-02-26T03:11:24;1.83;;;1.03;;
3867;SDS011;1949;48.152;11.528;2023-02-26T03:13:49;0.83;;;0.80;;
3867;SDS011;1949;48.152;11.528;2023-02-26T03:19:29;1.77;;;0.80;;
3867;SDS011;1949;48.152;11.528;2023-02-26T03:22:41;1.20;;;0.97;;
3867;SDS011;1949;48.152;11.528;2023-02-26T03:25:25;2.50;;;1.20;;
3867;SDS011;1949;48.152;11.528;2023-02-26T03:33:22;2.30;;;0.70;;
3867;SDS011;1949;48.152;11.528;2023-02-26T03:35:52;1.43;;;0.87;;
3867;SDS011;1949;48.152;11.528;2023-02-26T03:41:19;1.40;;;0.90;;
3867;SDS011;1949;48.152;11.528;2023-02-26T03:44:06;2.70;;;1.00;;
3867;SDS011;1949;48.152;11.528;2023-02-26T03:46:38;2.73;;;1.37;;
3867;SDS011;1949;48.152;11.528;2023-02-26T03:49:11;1.53;;;0.73;;
3867;SDS011;1949;48.152;11.528;2023-02-26T03:52:07;4.50;;;0.90;;
3867;SDS011;1949;48.152;11.528;2023-02-26T03:54:56;2.30;;;1.00;;
3867;SDS011;1949;48.152;11.528;2023-02-26T03:57:23;1.20;;;1.07;;
3867;SDS011;1949;48.152;11.528;2023-02-26T03:59:51;4.00;;;1.60;;
3867;SDS011;1949;48.152;11.528;2023-02-26T04:02:28;2.70;;;1.00;;
3867;SDS011;1949;48.152;11.528;2023-02-26T04:05:15;6.93;;;0.80;;
3867;SDS011;1949;48.152;11.528;2023-02-26T04:07:45;2.00;;;1.03;;
3867;SDS011;1949;48.152;11.528;2023-02-26T04:10:18;2.83;;;1.17;;
3867;SDS011;1949;48.152;11.528;2023-02-26T04:12:49;1.20;;;0.80;;
3867;SDS011;1949;48.152;11.528;2023-02-26T04:15:15;1.53;;;0.87;;
3867;SDS011;1949;48.152;11.528;2023-02-26T04:17:50;2.70;;;0.90;;
3867;SDS011;1949;48.152;11.528;2023-02-26T04:20:16;1.00;;;0.90;;
3867;SDS011;1949;48.152;11.528;2023-02-26T04:22:43;2.40;;;0.83;;
3867;SDS011;1949;48.152;11.528;2023-02-26T04:25:20;6.50;;;1.87;;
3867;SDS011;1949;48.152;11.528;2023-02-26T04:27:55;0.90;;;0.70;;
3867;SDS011;1949;48.152;11.528;2023-02-26T04:30:21;2.13;;;1.17;;
3867;SDS011;1949;48.152;11.528;2023-02-26T04:32:54;8.73;;;1.20;;
3867;SDS011;1949;48.152;11.528;2023-02-26T04:35:20;2.57;;;0.90;;
3867;SDS011;1949;48.152;11.528;2023-02-26T04:37:45;2.80;;;1.10;;
3867;SDS011;1949;48.152;11.528;2023-02-26T04:40:22;2.80;;;1.27;;
3867;SDS011;1949;48.152;11.528;2023-02-26T04:42:48;3.90;;;1.23;;
3867;SDS011;1949;48.152;11.528;2023-02-26T04:45:21;1.73;;;1.00;;
3867;SDS011;1949;48.152;11.528;2023-02-26T04:47:48;1.57;;;0.90;;
3867;SDS011;1949;48.152;11.528;2023-02-26T04:50:16;1.00;;;0.83;;
3867;SDS011;1949;48.152;11.528;2023-02-26T04:52:41;5.40;;;1.00;;
3867;SDS011;1949;48.152;11.528;2023-02-26T04:55:12;3.90;;;1.10;;
3867;SDS011;1949;48.152;11.528;2023-02-26T04:57:40;1.73;;;1.00;;
3867;SDS011;1949;48.152;11.528;2023-02-26T05:00:06;0.80;;;0.80;;
3867;SDS011;1949;48.152;11.528;2023-02-26T05:02:33;2.80;;;1.27;;
3867;SDS011;1949;48.152;11.528;2023-02-26T05:05:01;0.80;;;0.70;;
3867;SDS011;1949;48.152;11.528;2023-02-26T05:07:27;2.20;;;0.90;;
3867;SDS011;1949;48.152;11.528;2023-02-26T05:09:55;1.50;;;0.77;;
3867;SDS011;1949;48.152;11.528;2023-02-26T05:12:22;3.90;;;1.07;;
3867;SDS011;1949;48.152;11.528;2023-02-26T05:14:50;1.77;;;1.10;;
3867;SDS011;1949;48.152;11.528;2023-02-26T05:17:17;1.07;;;0.87;;
3867;SDS011;1949;48.152;11.528;2023-02-26T05:19:46;4.20;;;0.90;;
3867;SDS011;1949;48.152;11.528;2023-02-26T05:22:13;3.00;;;0.90;;
3867;SDS011;1949;48.152;11.528;2023-02-26T05:24:41;5.03;;;1.60;;
3867;SDS011;1949;48.152;11.528;2023-02-26T05:27:07;1.90;;;1.00;;
3867;SDS011;1949;48.152;11.528;2023-02-26T05:32:28;3.80;;;1.63;;
3867;SDS011;1949;48.152;11.528;2023-02-26T05:34:55;2.60;;;0.90;;
3867;SDS011;1949;48.152;11.528;2023-02-26T05:37:21;1.70;;;1.03;;
3867;SDS011;1949;48.152;11.528;2023-02-26T05:39:46;4.53;;;1.03;;
3867;SDS011;1949;48.152;11.528;2023-02-26T05:42:12;5.97;;;1.57;;
3867;SDS011;1949;48.152;11.528;2023-02-26T05:44:50;7.23;;;2.67;;
3867;SDS011;1949;48.152;11.528;2023-02-26T05:49:49;4.97;;;2.13;;
3867;SDS011;1949;48.152;11.528;2023-02-26T05:52:14;2.63;;;1.40;;
3867;SDS011;1949;48.152;11.528;2023-02-26T05:54:45;1.90;;;1.33;;
3867;SDS011;1949;48.152;11.528;2023-02-26T05:57:19;4.23;;;1.60;;
3867;SDS011;1949;48.152;11.528;2023-02-26T06:03:06;7.13;;;1.57;;
3867;SDS011;1949;48.152;11.528;2023-02-26T06:05:32;2.47;;;1.20;;
3867;SDS011;1949;48.152;11.528;2023-02-26T06:08:00;5.57;;;2.40;;
3867;SDS011;1949;48.152;11.528;2023-02-26T06:10:26;7.47;;;2.53;;
3867;SDS011;1949;48.152;11.528;2023-02-26T06:13:02;1.37;;;1.13;;
3867;SDS011;1949;48.152;11.528;2023-02-26T06:15:41;6.60;;;2.40;;
3867;SDS011;1949;48.152;11.528;2023-02-26T06:18:07;8.17;;;3.00;;
3867;SDS011;1949;48.152;11.528;2023-02-26T06:23:02;1.33;;;1.23;;
3867;SDS011;1949;48.152;11.528;2023-02-26T06:25:31;7.83;;;3.03;;
3867;SDS011;1949;48.152;11.528;2023-02-26T06:28:02;4.70;;;2.13;;
3867;SDS011;1949;48.152;11.528;2023-02-26T06:33:00;13.00;;;4.00;;
3867;SDS011;1949;48.152;11.528;2023-02-26T06:35:27;5.70;;;2.80;;
3867;SDS011;1949;48.152;11.528;2023-02-26T06:37:54;4.20;;;2.33;;
3867;SDS011;1949;48.152;11.528;2023-02-26T06:40:21;1.40;;;1.07;;
3867;SDS011;1949;48.152;11.528;2023-02-26T06:42:55;2.30;;;1.30;;
3867;SDS011;1949;48.152;11.528;2023-02-26T06:45:21;4.77;;;2.53;;
3867;SDS011;1949;48.152;11.528;2023-02-26T06:51:13;2.03;;;1.43;;
3867;SDS011;1949;48.152;11.528;2023-02-26T06:56:15;4.00;;;1.30;;
3867;SDS011;1949;48.152;11.528;2023-02-26T06:58:40;3.83;;;2.20;;
3867;SDS011;1949;48.152;11.528;2023-02-26T07:01:07;7.23;;;1.80;;
3867;SDS011;1949;48.152;11.528;2023-02-26T07:09:14;5.30;;;2.40;;
3867;SDS011;1949;48.152;11.528;2023-02-26T07:11:40;6.60;;;2.90;;
3867;SDS011;1949;48.152;11.528;2023-02-26T07:14:19;4.20;;;2.00;;
3867;SDS011;1949;48.152;11.528;2023-02-26T07:16:46;9.33;;;4.17;;
3867;SDS011;1949;48.152;11.528;2023-02-26T07:19:18;7.33;;;3.90;;
3867;SDS011;1949;48.152;11.528;2023-02-26T07:21:56;5.43;;;1.90;;
3867;SDS011;1949;48.152;11.528;2023-02-26T07:24:22;5.30;;;2.67;;
3867;SDS011;1949;48.152;11.528;2023-02-26T07:26:47;17.73;;;5.33;;
3867;SDS011;1949;48.152;11.528;2023-02-26T07:29:15;5.83;;;3.30;;
3867;SDS011;1949;48.152;11.528;2023-02-26T07:35:03;6.20;;;2.77;;
3867;SDS011;1949;48.152;11.528;2023-02-26T07:37:32;8.93;;;4.50;;
3867;SDS011;1949;48.152;11.528;2023-02-26T07:40:02;2.63;;;1.53;;
3867;SDS011;1949;48.152;11.528;2023-02-26T07:42:28;18.20;;;2.37;;
3867;SDS011;1949;48.152;11.528;2023-02-26T07:44:58;14.90;;;3.17;;
3867;SDS011;1949;48.152;11.528;2023-02-26T07:56:23;17.17;;;3.97;;
3867;SDS011;1949;48.152;11.528;2023-02-26T08:02:12;12.53;;;4.20;;
3867;SDS011;1949;48.152;11.528;2023-02-26T08:07:59;30.33;;;8.77;;
3867;SDS011;1949;48.152;11.528;2023-02-26T08:17:09;10.40;;;4.07;;
3867;SDS011;1949;48.152;11.528;2023-02-26T08:42:36;8.47;;;4.40;;
3867;SDS011;1949;48.152;11.528;2023-02-26T08:48:23;20.67;;;5.50;;
3867;SDS011;1949;48.152;11.528;2023-02-26T08:54:11;18.17;;;6.90;;
3867;SDS011;1949;48.152;11.528;2023-02-26T08:59:59;10.40;;;4.50;;
3867;SDS011;1949;48.152;11.528;2023-02-26T09:09:09;11.70;;;4.33;;
3867;SDS011;1949;48.152;11.528;2023-02-26T09:14:57;15.07;;;4.70;;
3867;SDS011;1949;48.152;11.528;2023-02-26T09:20:46;10.73;;;5.10;;
3867;SDS011;1949;48.152;11.528;2023-02-26T09:23:13;16.47;;;6.40;;
3867;SDS011;1949;48.152;11.528;2023-02-26T09:25:44;10.57;;;5.03;;
3867;SDS011;1949;48.152;11.528;2023-02-26T09:31:02;26.90;;;10.23;;
3867;SDS011;1949;48.152;11.528;2023-02-26T09:47:45;4.70;;;2.30;;
3867;SDS011;1949;48.152;11.528;2023-02-26T09:55:47;6.97;;;3.13;;
3867;SDS011;1949;48.152;11.528;2023-02-26T10:01:11;8.00;;;3.70;;
3867;SDS011;1949;48.152;11.528;2023-02-26T10:09:11;6.20;;;3.90;;
3867;SDS011;1949;48.152;11.528;2023-02-26T10:11:55;6.20;;;3.40;;
3867;SDS011;1949;48.152;11.528;2023-02-26T10:15:06;6.67;;;3.67;;
3867;SDS011;1949;48.152;11.528;2023-02-26T10:20:23;8.77;;;4.63;;
3867;SDS011;1949;48.152;11.528;2023-02-26T10:22:58;7.00;;;3.60;;
3867;SDS011;1949;48.152;11.528;2023-02-26T10:25:38;7.80;;;3.63;;
3867;SDS011;1949;48.152;11.528;2023-02-26T10:33:23;11.33;;;5.50;;
3867;SDS011;1949;48.152;11.528;2023-02-26T10:36:03;12.30;;;4.97;;
3867;SDS011;1949;48.152;11.528;2023-02-26T10:39:21;8.83;;;5.00;;
3867;SDS011;1949;48.152;11.528;2023-02-26T10:42:22;10.37;;;5.63;;
3867;SDS011;1949;48.152;11.528;2023-02-26T10:48:01;13.50;;;6.17;;
3867;SDS011;1949;48.152;11.528;2023-02-26T10:50:48;12.37;;;6.10;;
3867;SDS011;1949;48.152;11.528;2023-02-26T10:53:17;13.67;;;6.30;;
3867;SDS011;1949;48.152;11.528;2023-02-26T10:56:19;9.70;;;4.70;;
3867;SDS011;1949;48.152;11.528;2023-02-26T10:58:43;11.73;;;5.40;;
3867;SDS011;1949;48.152;11.528;2023-02-26T11:01:15;12.90;;;4.80;;
3867;SDS011;1949;48.152;11.528;2023-02-26T11:03:44;9.43;;;4.27;;
3867;SDS011;1949;48.152;11.528;2023-02-26T11:06:18;8.40;;;4.17;;
3867;SDS011;1949;48.152;11.528;2023-02-26T11:14:16;5.07;;;3.33;;
3867;SDS011;1949;48.152;11.528;2023-02-26T11:19:37;7.97;;;3.80;;
3867;SDS011;1949;48.152;11.528;2023-02-26T11:24:40;5.53;;;3.00;;
3867;SDS011;1949;48.152;11.528;2023-02-26T11:27:17;3.70;;;2.70;;
3867;SDS011;1949;48.152;11.528;2023-02-26T11:29:53;14.57;;;3.30;;
3867;SDS011;1949;48.152;11.528;2023-02-26T11:32:31;8.70;;;3.57;;
3867;SDS011;1949;48.152;11.528;2023-02-26T11:35:01;3.60;;;2.70;;
3867;SDS011;1949;48.152;11.528;2023-02-26T11:37:47;5.40;;;3.30;;
3867;SDS011;1949;48.152;11.528;2023-02-26T11:40:25;6.00;;;3.10;;
3867;SDS011;1949;48.152;11.528;2023-02-26T11:43:18;13.97;;;3.70;;
3867;SDS011;1949;48.152;11.528;2023-02-26T11:45:47;6.37;;;3.60;;
3867;SDS011;1949;48.152;11.528;2023-02-26T11:48:24;5.03;;;2.30;;
3867;SDS011;1949;48.152;11.528;2023-02-26T11:51:04;7.27;;;3.87;;
3867;SDS011;1949;48.152;11.528;2023-02-26T11:53:41;10.30;;;4.60;;
3867;SDS011;1949;48.152;11.528;2023-02-26T11:56:18;12.33;;;5.47;;
3867;SDS011;1949;48.152;11.528;2023-02-26T11:59:21;6.83;;;3.53;;
3867;SDS011;1949;48.152;11.528;2023-02-26T12:01:50;9.27;;;4.60;;
3867;SDS011;1949;48.152;11.528;2023-02-26T12:04:18;7.83;;;4.50;;
3867;SDS011;1949;48.152;11.528;2023-02-26T12:06:48;7.00;;;3.00;;
3867;SDS011;1949;48.152;11.528;2023-02-26T12:09:17;5.40;;;3.20;;
3867;SDS011;1949;48.152;11.528;2023-02-26T12:17:41;7.27;;;4.10;;
3867;SDS011;1949;48.152;11.528;2023-02-26T12:20:32;5.50;;;3.50;;
3867;SDS011;1949;48.152;11.528;2023-02-26T12:23:15;6.80;;;4.00;;
3867;SDS011;1949;48.152;11.528;2023-02-26T13:07:23;9.70;;;4.03;;
3867;SDS011;1949;48.152;11.528;2023-02-26T13:15:49;11.23;;;2.60;;
3867;SDS011;1949;48.152;11.528;2023-02-26T13:21:15;4.17;;;2.80;;
3867;SDS011;1949;48.152;11.528;2023-02-26T13:23:50;3.83;;;2.50;;
3867;SDS011;1949;48.152;11.528;2023-02-26T13:26:20;5.97;;;2.67;;
3867;SDS011;1949;48.152;11.528;2023-02-26T13:28:55;1.60;;;1.43;;
3867;SDS011;1949;48.152;11.528;2023-02-26T13:31:49;2.23;;;1.77;;
3867;SDS011;1949;48.152;11.528;2023-02-26T13:37:20;3.67;;;1.83;;
3867;SDS011;1949;48.152;11.528;2023-02-26T13:52:26;9.10;;;3.97;;
3867;SDS011;1949;48.152;11.528;2023-02-26T13:55:33;13.87;;;6.40;;
3867;SDS011;1949;48.152;11.528;2023-02-26T14:04:54;20.30;;;8.83;;
3867;SDS011;1949;48.152;11.528;2023-02-26T14:16:44;22.13;;;9.20;;
3867;SDS011;1949;48.152;11.528;2023-02-26T14:31:59;19.60;;;7.07;;
3867;SDS011;1949;48.152;11.528;2023-02-26T14:34:36;12.00;;;5.30;;
3867;SDS011;1949;48.152;11.528;2023-02-26T14:37:16;18.20;;;8.40;;
3867;SDS011;1949;48.152;11.528;2023-02-26T14:39:51;25.70;;;10.43;;
3867;SDS011;1949;48.152;11.528;2023-02-26T14:45:31;11.73;;;5.67;;
3867;SDS011;1949;48.152;11.528;2023-02-26T14:48:04;28.20;;;11.57;;
3867;SDS011;1949;48.152;11.528;2023-02-26T15:15:57;19.73;;;7.70;;
3867;SDS011;1949;48.152;11.528;2023-02-26T15:27:43;14.00;;;6.40;;
3867;SDS011;1949;48.152;11.528;2023-02-26T15:30:12;19.50;;;7.73;;
3867;SDS011;1949;48.152;11.528;2023-02-26T15:36:12;20.93;;;9.20;;
3867;SDS011;1949;48.152;11.528;2023-02-26T15:38:47;9.33;;;4.07;;
3867;SDS011;1949;48.152;11.528;2023-02-26T15:41:22;15.83;;;5.50;;
3867;SDS011;1949;48.152;11.528;2023-02-26T15:46:45;26.47;;;8.50;;
3867;SDS011;1949;48.152;11.528;2023-02-26T15:49:16;15.60;;;6.20;;
3867;SDS011;1949;48.152;11.528;2023-02-26T15:52:15;25.70;;;10.20;;
3867;SDS011;1949;48.152;11.528;2023-02-26T15:54:52;22.90;;;8.20;;
3867;SDS011;1949;48.152;11.528;2023-02-26T15:57:29;16.67;;;7.33;;
3867;SDS011;1949;48.152;11.528;2023-02-26T16:02:40;18.03;;;7.20;;
3867;SDS011;1949;48.152;11.528;2023-02-26T16:05:13;9.13;;;4.60;;
3867;SDS011;1949;48.152;11.528;2023-02-26T16:16:53;12.30;;;6.47;;
3867;SDS011;1949;48.152;11.528;2023-02-26T16:31:25;15.37;;;7.40;;
3867;SDS011;1949;48.152;11.528;2023-02-26T16:37:09;24.00;;;8.80;;
3867;SDS011;1949;48.152;11.528;2023-02-26T16:45:46;29.37;;;11.23;;
3867;SDS011;1949;48.152;11.528;2023-02-26T16:50:55;26.47;;;11.27;;
3867;SDS011;1949;48.152;11.528;2023-02-26T16:53:23;18.43;;;7.77;;
3867;SDS011;1949;48.152;11.528;2023-02-26T16:55:59;12.70;;;5.30;;
3867;SDS011;1949;48.152;11.528;2023-02-26T16:58:25;16.20;;;5.47;;
3867;SDS011;1949;48.152;11.528;2023-02-26T17:01:01;9.53;;;4.13;;
3867;SDS011;1949;48.152;11.528;2023-02-26T17:03:35;7.80;;;2.90;;
3867;SDS011;1949;48.152;11.528;2023-02-26T17:06:08;8.63;;;5.03;;
3867;SDS011;1949;48.152;11.528;2023-02-26T17:08:49;9.63;;;4.40;;
3867;SDS011;1949;48.152;11.528;2023-02-26T17:11:28;9.43;;;4.50;;
3867;SDS011;1949;48.152;11.528;2023-02-26T17:16:52;11.00;;;4.60;;
3867;SDS011;1949;48.152;11.528;2023-02-26T17:19:18;9.73;;;4.70;;
3867;SDS011;1949;48.152;11.528;2023-02-26T17:21:45;6.57;;;3.30;;
3867;SDS011;1949;48.152;11.528;2023-02-26T17:26:55;7.07;;;3.47;;
3867;SDS011;1949;48.152;11.528;2023-02-26T17:32:20;6.90;;;3.80;;
3867;SDS011;1949;48.152;11.528;2023-02-26T17:34:49;20.00;;;3.30;;
3867;SDS011;1949;48.152;11.528;2023-02-26T17:37:17;8.87;;;4.03;;
3867;SDS011;1949;48.152;11.528;2023-02-26T17:42:20;4.93;;;2.70;;
3867;SDS011;1949;48.152;11.528;2023-02-26T17:44:47;6.07;;;3.37;;
3867;SDS011;1949;48.152;11.528;2023-02-26T17:47:15;9.77;;;4.07;;
3867;SDS011;1949;48.152;11.528;2023-02-26T17:49:42;11.27;;;5.10;;
3867;SDS011;1949;48.152;11.528;2023-02-26T17:54:44;15.43;;;4.53;;
3867;SDS011;1949;48.152;11.528;2023-02-26T17:57:18;12.93;;;5.20;;
3867;SDS011;1949;48.152;11.528;2023-02-26T18:02:20;15.43;;;5.70;;
3867;SDS011;1949;48.152;11.528;2023-02-26T18:04:47;10.57;;;4.60;;
3867;SDS011;1949;48.152;11.528;2023-02-26T18:07:16;7.23;;;4.07;;
3867;SDS011;1949;48.152;11.528;2023-02-26T18:09:43;15.20;;;6.07;;
3867;SDS011;1949;48.152;11.528;2023-02-26T18:12:17;8.27;;;4.93;;
3867;SDS011;1949;48.152;11.528;2023-02-26T18:14:45;11.40;;;3.43;;
3867;SDS011;1949;48.152;11.528;2023-02-26T18:17:12;11.83;;;3.00;;
3867;SDS011;1949;48.152;11.528;2023-02-26T18:19:40;12.73;;;5.23;;
3867;SDS011;1949;48.152;11.528;2023-02-26T18:22:12;11.30;;;5.30;;
3867;SDS011;1949;48.152;11.528;2023-02-26T18:24:43;9.10;;;3.93;;
3867;SDS011;1949;48.152;11.528;2023-02-26T18:27:12;15.10;;;5.50;;
3867;SDS011;1949;48.152;11.528;2023-02-26T18:29:43;13.93;;;5.00;;
3867;SDS011;1949;48.152;11.528;2023-02-26T18:32:16;16.10;;;4.83;;
3867;SDS011;1949;48.152;11.528;2023-02-26T18:34:44;15.80;;;5.27;;
3867;SDS011;1949;48.152;11.528;2023-02-26T18:37:13;21.57;;;7.23;;
3867;SDS011;1949;48.152;11.528;2023-02-26T18:39:41;10.47;;;4.70;;
3867;SDS011;1949;48.152;11.528;2023-02-26T18:42:16;12.43;;;5.03;;
3867;SDS011;1949;48.152;11.528;2023-02-26T18:44:48;11.33;;;4.83;;
3867;SDS011;1949;48.152;11.528;2023-02-26T18:47:14;11.13;;;4.43;;
3867;SDS011;1949;48.152;11.528;2023-02-26T18:49:40;10.00;;;4.90;;
3867;SDS011;1949;48.152;11.528;2023-02-26T18:52:07;8.53;;;4.37;;
3867;SDS011;1949;48.152;11.528;2023-02-26T18:54:32;12.67;;;5.13;;
3867;SDS011;1949;48.152;11.528;2023-02-26T18:57:00;12.10;;;5.40;;
3867;SDS011;1949;48.152;11.528;2023-02-26T18:59:26;9.57;;;4.93;;
3867;SDS011;1949;48.152;11.528;2023-02-26T19:01:52;6.50;;;2.83;;
3867;SDS011;1949;48.152;11.528;2023-02-26T19:04:18;8.37;;;4.80;;
3867;SDS011;1949;48.152;11.528;2023-02-26T19:06:44;20.93;;;5.17;;
3867;SDS011;1949;48.152;11.528;2023-02-26T19:09:10;13.37;;;5.33;;
3867;SDS011;1949;48.152;11.528;2023-02-26T19:11:36;14.80;;;6.10;;
3867;SDS011;1949;48.152;11.528;2023-02-26T19:14:03;13.57;;;6.17;;
3867;SDS011;1949;48.152;11.528;2023-02-26T19:16:34;11.20;;;5.27;;
3867;SDS011;1949;48.152;11.528;2023-02-26T19:19:05;10.80;;;5.23;;
3867;SDS011;1949;48.152;11.528;2023-02-26T19:21:32;11.30;;;4.73;;
3867;SDS011;1949;48.152;11.528;2023-02-26T19:23:58;8.77;;;5.00;;
3867;SDS011;1949;48.152;11.528;2023-02-26T19:26:27;11.13;;;5.60;;
3867;SDS011;1949;48.152;11.528;2023-02-26T19:31:29;16.83;;;6.53;;
3867;SDS011;1949;48.152;11.528;2023-02-26T19:33:55;13.60;;;5.70;;
3867;SDS011;1949;48.152;11.528;2023-02-26T19:36:21;13.87;;;5.73;;
3867;SDS011;1949;48.152;11.528;2023-02-26T19:38:48;12.67;;;5.60;;
3867;SDS011;1949;48.152;11.528;2023-02-26T19:41:15;11.57;;;5.70;;
3867;SDS011;1949;48.152;11.528;2023-02-26T19:43:46;16.07;;;6.33;;
3867;SDS011;1949;48.152;11.528;2023-02-26T19:48:43;22.40;;;8.20;;
3867;SDS011;1949;48.152;11.528;2023-02-26T19:51:09;16.33;;;6.93;;
3867;SDS011;1949;48.152;11.528;2023-02-26T19:53:35;18.10;;;9.10;;
3867;SDS011;1949;48.152;11.528;2023-02-26T19:56:02;17.83;;;7.50;;
3867;SDS011;1949;48.152;11.528;2023-02-26T19:58:31;16.40;;;7.97;;
3867;SDS011;1949;48.152;11.528;2023-02-26T20:01:03;24.33;;;7.30;;
3867;SDS011;1949;48.152;11.528;2023-02-26T20:03:29;11.87;;;5.63;;
3867;SDS011;1949;48.152;11.528;2023-02-26T20:05:55;5.27;;;3.10;;
3867;SDS011;1949;48.152;11.528;2023-02-26T20:08:24;9.07;;;4.07;;
3867;SDS011;1949;48.152;11.528;2023-02-26T20:10:56;10.43;;;4.30;;
3867;SDS011;1949;48.152;11.528;2023-02-26T20:13:25;8.50;;;4.33;;
3867;SDS011;1949;48.152;11.528;2023-02-26T20:15:55;6.27;;;3.53;;
3867;SDS011;1949;48.152;11.528;2023-02-26T20:18:26;7.73;;;4.33;;
3867;SDS011;1949;48.152;11.528;2023-02-26T20:20:55;9.07;;;3.87;;
3867;SDS011;1949;48.152;11.528;2023-02-26T20:23:23;14.03;;;5.63;;
3867;SDS011;1949;48.152;11.528;2023-02-26T20:25:59;9.00;;;3.80;;
3867;SDS011;1949;48.152;11.528;2023-02-26T20:28:27;7.07;;;3.80;;
3867;SDS011;1949;48.152;11.528;2023-02-26T20:30:55;10.53;;;3.83;;
3867;SDS011;1949;48.152;11.528;2023-02-26T20:33:23;7.43;;;3.70;;
3867;SDS011;1949;48.152;11.528;2023-02-26T20:35:52;7.57;;;4.10;;
3867;SDS011;1949;48.152;11.528;2023-02-26T20:38:21;9.10;;;4.17;;
3867;SDS011;1949;48.152;11.528;2023-02-26T20:43:18;7.90;;;3.70;;
3867;SDS011;1949;48.152;11.528;2023-02-26T20:45:48;7.83;;;3.93;;
3867;SDS011;1949;48.152;11.528;2023-02-26T20:48:14;9.63;;;3.97;;
3867;SDS011;1949;48.152;11.528;2023-02-26T20:50:43;10.70;;;4.83;;
3867;SDS011;1949;48.152;11.528;2023-02-26T20:53:09;10.07;;;4.83;;
3867;SDS011;1949;48.152;11.528;2023-02-26T20:55:36;11.40;;;4.83;;
3867;SDS011;1949;48.152;11.528;2023-02-26T20:58:03;8.00;;;4.63;;
3867;SDS011;1949;48.152;11.528;2023-02-26T21:00:29;9.03;;;5.00;;
3867;SDS011;1949;48.152;11.528;2023-02-26T21:02:56;10.27;;;5.00;;
3867;SDS011;1949;48.152;11.528;2023-02-26T21:05:25;9.83;;;4.40;;
3867;SDS011;1949;48.152;11.528;2023-02-26T21:07:51;8.20;;;4.10;;
3867;SDS011;1949;48.152;11.528;2023-02-26T21:10:17;18.23;;;8.37;;
3867;SDS011;1949;48.152;11.528;2023-02-26T21:12:50;14.90;;;6.03;;
3867;SDS011;1949;48.152;11.528;2023-02-26T21:15:17;10.93;;;4.33;;
3867;SDS011;1949;48.152;11.528;2023-02-26T21:17:44;12.73;;;4.07;;
3867;SDS011;1949;48.152;11.528;2023-02-26T21:20:12;8.03;;;4.20;;
3867;SDS011;1949;48.152;11.528;2023-02-26T21:22:42;7.10;;;4.00;;
3867;SDS011;1949;48.152;11.528;2023-02-26T21:25:09;10.27;;;4.97;;
3867;SDS011;1949;48.152;11.528;2023-02-26T21:27:36;13.20;;;5.50;;
3867;SDS011;1949;48.152;11.528;2023-02-26T21:30:03;13.60;;;5.60;;
3867;SDS011;1949;48.152;11.528;2023-02-26T21:32:39;15.20;;;6.67;;
3867;SDS011;1949;48.152;11.528;2023-02-26T21:35:07;16.80;;;7.37;;
3867;SDS011;1949;48.152;11.528;2023-02-26T21:37:35;17.30;;;7.67;;
3867;SDS011;1949;48.152;11.528;2023-02-26T21:40:02;20.10;;;8.50;;
3867;SDS011;1949;48.152;11.528;2023-02-26T21:42:36;9.80;;;5.70;;
3867;SDS011;1949;48.152;11.528;2023-02-26T21:45:02;14.90;;;5.30;;
3867;SDS011;1949;48.152;11.528;2023-02-26T21:47:29;13.40;;;4.80;;
3867;SDS011;1949;48.152;11.528;2023-02-26T21:52:25;10.03;;;3.73;;
3867;SDS011;1949;48.152;11.528;2023-02-26T21:54:54;7.27;;;3.90;;
3867;SDS011;1949;48.152;11.528;2023-02-26T21:57:25;7.13;;;4.17;;
3867;SDS011;1949;48.152;11.528;2023-02-26T21:59:52;10.90;;;4.37;;
3867;SDS011;1949;48.152;11.528;2023-02-26T22:02:21;10.57;;;4.80;;
3867;SDS011;1949;48.152;11.528;2023-02-26T22:07:21;9.27;;;4.77;;
3867;SDS011;1949;48.152;11.528;2023-02-26T22:09:48;9.77;;;4.73;;
3867;SDS011;1949;48.152;11.528;2023-02-26T22:12:15;9.23;;;4.63;;
3867;SDS011;1949;48.152;11.528;2023-02-26T22:14:43;11.40;;;4.60;;
3867;SDS011;1949;48.152;11.528;2023-02-26T22:17:09;6.47;;;3.70;;
3867;SDS011;1949;48.152;11.528;2023-02-26T22:19:36;9.73;;;4.57;;
3867;SDS011;1949;48.152;11.528;2023-02-26T22:22:03;7.73;;;3.90;;
3867;SDS011;1949;48.152;11.528;2023-02-26T22:24:34;10.33;;;4.67;;
3867;SDS011;1949;48.152;11.528;2023-02-26T22:27:02;8.97;;;4.53;;